Time;durP1;ratioP1;P1;durP2;ratioP2;P2;SDS_P1;SDS_P2;PMS_P1;PMS_P2;Temp;Humidity;BMP_temperature;BMP_pressure;BME280_temperature;BME280_humidity;BME280_pressure;Samples;Min_cycle;Max_cycle;Signal;HPM_P1;HPM_P2
2021/05/22 00:00:27;;;;;;;18.30;8.50;;;;;;;9.55;100.00;97653.16;5070162;28;20036;-93
2021/05/22 00:02:52;;;;;;;17.65;8.40;;;;;;;9.72;100.00;97691.31;5105050;28;20039;-93
2021/05/22 00:05:18;;;;;;;14.30;8.90;;;;;;;9.76;100.00;97700.03;5069043;28;20566;-92
2021/05/22 00:07:44;;;;;;;15.35;8.60;;;;;;;9.58;100.00;97669.88;5069642;28;20096;-94
2021/05/22 00:10:11;;;;;;;20.23;8.98;;;;;;;9.55;100.00;97669.19;5070392;28;20039;-92
2021/05/22 00:12:39;;;;;;;19.38;9.00;;;;;;;9.37;100.00;97646.19;5069702;28;20037;-92
2021/05/22 00:15:06;;;;;;;13.48;8.93;;;;;;;9.36;100.00;97663.13;5085026;28;20046;-92
2021/05/22 00:17:32;;;;;;;15.63;8.98;;;;;;;9.47;100.00;97671.44;5068285;28;20097;-92
2021/05/22 00:19:58;;;;;;;25.00;8.02;;;;;;;9.45;100.00;97681.31;5069687;28;20441;-92
2021/05/22 00:22:24;;;;;;;11.82;8.43;;;;;;;9.45;100.00;97673.31;5105415;28;20028;-92
2021/05/22 00:24:50;;;;;;;16.02;7.70;;;;;;;9.48;100.00;97675.81;5108420;28;20111;-92
2021/05/22 00:27:15;;;;;;;13.77;7.57;;;;;;;9.41;100.00;97669.09;5104495;28;20024;-93
2021/05/22 00:29:41;;;;;;;13.82;8.25;;;;;;;9.44;100.00;97661.78;5071953;28;20030;-91
2021/05/22 00:32:06;;;;;;;10.77;7.25;;;;;;;9.44;100.00;97672.47;5072109;28;20028;-92
2021/05/22 00:34:33;;;;;;;12.23;8.55;;;;;;;9.37;100.00;97659.53;5104900;28;20032;-91
2021/05/22 00:36:58;;;;;;;21.15;8.60;;;;;;;9.37;100.00;97670.19;5087497;28;20479;-92
2021/05/22 00:39:24;;;;;;;13.60;9.27;;;;;;;9.29;100.00;97654.59;5072488;28;20031;-93
2021/05/22 00:41:49;;;;;;;27.50;16.77;;;;;;;9.31;100.00;97663.41;5111071;28;20031;-92
2021/05/22 00:44:15;;;;;;;34.13;20.73;;;;;;;9.35;100.00;97659.59;5074432;28;20015;-93
2021/05/22 00:46:41;;;;;;;33.17;16.50;;;;;;;9.32;100.00;97649.09;5076742;28;20039;-92
2021/05/22 00:49:06;;;;;;;23.55;11.30;;;;;;;9.35;100.00;97667.59;5074730;28;20084;-93
2021/05/22 00:51:32;;;;;;;18.40;10.18;;;;;;;9.32;100.00;97657.09;5074755;28;20020;-93
2021/05/22 00:54:02;;;;;;;13.07;9.05;;;;;;;9.33;100.00;97653.50;5075257;28;20014;-91
2021/05/22 00:56:28;;;;;;;19.05;9.88;;;;;;;9.17;100.00;97634.78;5071838;28;20023;-92
2021/05/22 00:58:54;;;;;;;15.90;9.27;;;;;;;9.19;100.00;97630.25;5072536;28;20028;-93
2021/05/22 01:01:20;;;;;;;12.40;9.02;;;;;;;8.99;100.00;97608.25;5075403;28;20449;-91
2021/05/22 01:03:50;;;;;;;15.23;9.80;;;;;;;8.96;100.00;97601.28;5073508;28;20024;-92
2021/05/22 01:06:22;;;;;;;15.15;9.55;;;;;;;9.21;100.00;97641.69;5073066;28;20028;-91
2021/05/22 01:09:12;;;;;;;20.43;10.73;;;;;;;8.75;100.00;97564.25;5091068;28;20028;-93
2021/05/22 01:11:41;;;;;;;15.88;10.13;;;;;;;8.77;100.00;97568.56;5063356;28;20262;-91
2021/05/22 01:14:17;;;;;;;15.20;9.68;;;;;;;9.05;100.00;97610.59;5072821;28;20058;-93
2021/05/22 01:16:43;;;;;;;16.20;10.32;;;;;;;8.91;100.00;97622.03;5074215;28;20514;-92
2021/05/22 01:19:16;;;;;;;18.55;10.32;;;;;;;8.92;100.00;97615.72;5073668;28;20016;-92
2021/05/22 01:21:42;;;;;;;20.83;10.38;;;;;;;8.79;100.00;97592.47;5073439;28;20027;-92
2021/05/22 01:24:12;;;;;;;14.57;9.25;;;;;;;8.85;100.00;97611.69;5071949;28;20110;-92
2021/05/22 01:26:38;;;;;;;13.98;9.65;;;;;;;8.54;100.00;97572.47;5074170;28;20041;-93
2021/05/22 01:29:04;;;;;;;19.73;9.23;;;;;;;8.54;100.00;97564.47;5070750;28;20020;-92
2021/05/22 01:31:32;;;;;;;16.20;9.55;;;;;;;8.45;100.00;97556.13;5072774;28;20014;-92
2021/05/22 01:34:01;;;;;;;16.88;8.82;;;;;;;8.68;100.00;97617.03;5075622;28;20024;-94
2021/05/22 01:36:30;;;;;;;19.70;9.38;;;;;;;8.55;100.00;97605.34;5076098;28;20024;-93
2021/05/22 01:38:55;;;;;;;17.08;9.15;;;;;;;8.53;100.00;97599.19;5072759;28;20080;-94
2021/05/22 01:41:21;;;;;;;15.95;9.23;;;;;;;8.36;100.00;97600.09;5069675;28;20092;-92
2021/05/22 01:43:49;;;;;;;15.25;9.30;;;;;;;8.29;100.00;97584.50;5070660;28;20044;-93
2021/05/22 01:46:16;;;;;;;15.48;9.07;;;;;;;8.57;100.00;97630.09;5069616;28;20027;-94
2021/05/22 01:48:43;;;;;;;15.07;9.55;;;;;;;8.47;100.00;97620.84;5068089;28;20034;-91
2021/05/22 01:51:13;;;;;;;17.65;9.20;;;;;;;8.46;100.00;97611.16;5067238;28;20028;-93
2021/05/22 01:53:40;;;;;;;16.23;9.20;;;;;;;8.56;100.00;97645.22;5066928;28;20051;-92
2021/05/22 01:56:06;;;;;;;14.15;9.50;;;;;;;8.53;100.00;97633.84;5066637;28;20040;-91
2021/05/22 01:58:32;;;;;;;14.35;8.68;;;;;;;8.46;100.00;97640.47;5086713;28;20039;-92
2021/05/22 02:00:58;;;;;;;17.98;8.40;;;;;;;8.41;100.00;97645.16;5086821;28;20020;-92
2021/05/22 02:04:03;;;;;;;14.57;8.35;;;;;;;8.37;100.00;97644.44;5069007;28;20116;-92
2021/05/22 02:06:31;;;;;;;24.45;9.15;;;;;;;8.28;100.00;97644.06;4988164;28;20036;-91
2021/05/22 02:08:58;;;;;;;16.45;8.65;;;;;;;8.30;100.00;97642.19;5087043;28;20063;-91
2021/05/22 02:11:27;;;;;;;16.58;8.38;;;;;;;8.28;100.00;97647.59;5082283;28;20020;-92
2021/05/22 02:13:54;;;;;;;17.20;8.73;;;;;;;8.22;100.00;97639.88;5066149;28;20127;-91
2021/05/22 02:16:25;;;;;;;11.90;8.48;;;;;;;8.14;100.00;97639.41;5099063;28;20059;-93
2021/05/22 02:18:52;;;;;;;19.20;8.32;;;;;;;8.12;100.00;97644.81;5083121;28;20124;-92
2021/05/22 02:21:17;;;;;;;14.52;8.25;;;;;;;8.07;100.00;97638.00;5081627;28;20028;-91
2021/05/22 02:23:48;;;;;;;16.92;8.23;;;;;;;8.13;100.00;97641.22;5086365;28;20050;-91
2021/05/22 02:26:13;;;;;;;14.40;8.30;;;;;;;8.06;100.00;97626.47;5082287;28;20024;-92
2021/05/22 02:28:41;;;;;;;17.25;8.75;;;;;;;8.07;100.00;97636.19;5066779;28;20054;-91
2021/05/22 02:31:07;;;;;;;13.32;8.73;;;;;;;8.07;100.00;97643.31;5100364;28;20082;-92
2021/05/22 02:33:33;;;;;;;21.20;9.13;;;;;;;8.05;100.00;97638.09;5083759;28;20047;-92
2021/05/22 02:35:59;;;;;;;14.40;8.05;;;;;;;7.98;100.00;97625.16;5066278;28;20487;-94
2021/05/22 02:38:29;;;;;;;16.23;9.00;;;;;;;7.99;100.00;97634.88;5083747;28;20020;-92
2021/05/22 02:41:00;;;;;;;17.25;9.55;;;;;;;7.98;100.00;97634.00;5066887;28;20402;-92
2021/05/22 02:43:27;;;;;;;14.15;9.20;;;;;;;7.94;100.00;97635.09;5066409;28;20032;-92
2021/05/22 02:45:53;;;;;;;13.77;8.32;;;;;;;7.85;100.00;97621.38;5099017;28;20028;-92
2021/05/22 02:48:20;;;;;;;20.10;9.50;;;;;;;7.92;100.00;97631.66;5066718;28;20016;-93
2021/05/22 02:50:47;;;;;;;14.95;9.20;;;;;;;7.93;100.00;97621.84;5065514;28;20028;-90
2021/05/22 02:53:14;;;;;;;13.95;8.73;;;;;;;7.92;100.00;97626.31;5102356;28;20020;-92
2021/05/22 02:55:40;;;;;;;18.48;9.68;;;;;;;7.91;100.00;97619.25;5103292;28;20126;-92
2021/05/22 02:58:06;;;;;;;23.10;10.55;;;;;;;7.93;100.00;97616.53;5071094;28;20475;-91
2021/05/22 03:00:33;;;;;;;13.00;8.45;;;;;;;7.99;100.00;97627.75;5070848;28;20449;-91
2021/05/22 03:02:59;;;;;;;13.63;8.30;;;;;;;7.99;100.00;97626.88;5103732;28;20020;-92
2021/05/22 03:05:25;;;;;;;18.67;7.70;;;;;;;8.03;100.00;97637.28;5090299;28;20024;-92
2021/05/22 03:07:51;;;;;;;13.35;7.68;;;;;;;7.97;100.00;97621.63;5069038;28;20024;-91
2021/05/22 03:10:17;;;;;;;12.82;8.00;;;;;;;8.02;100.00;97621.41;5102747;28;20061;-92
2021/05/22 03:12:43;;;;;;;16.08;8.30;;;;;;;8.15;100.00;97627.84;5103502;28;20032;-92
2021/05/22 03:15:10;;;;;;;28.00;10.35;;;;;;;8.23;100.00;97630.09;5102085;28;20505;-89
2021/05/22 03:17:36;;;;;;;39.17;13.30;;;;;;;8.34;100.00;97639.28;5069638;28;20036;-92
2021/05/22 03:20:03;;;;;;;29.42;10.75;;;;;;;8.42;100.00;97641.56;5085490;28;20020;-91
2021/05/22 03:22:29;;;;;;;29.52;12.70;;;;;;;8.33;100.00;97608.25;5086142;28;20028;-90
2021/05/22 03:24:55;;;;;;;23.73;9.80;;;;;;;8.49;100.00;97642.97;5084711;28;20060;-93
2021/05/22 03:27:20;;;;;;;19.25;8.63;;;;;;;8.56;100.00;97653.22;5069226;28;20023;-91
2021/05/22 03:29:46;;;;;;;30.60;10.68;;;;;;;8.68;100.00;97646.38;5067841;28;20059;-92
2021/05/22 03:32:11;;;;;;;19.17;10.13;;;;;;;8.71;100.00;97643.53;5064500;28;20031;-93
2021/05/22 03:34:37;;;;;;;23.98;11.15;;;;;;;8.83;100.00;97653.56;5065626;28;20036;-93
2021/05/22 03:37:02;;;;;;;21.38;9.27;;;;;;;8.93;100.00;97649.47;5067542;28;20039;-93
2021/05/22 03:39:28;;;;;;;16.73;9.15;;;;;;;9.08;100.00;97653.97;5067272;28;20411;-92
2021/05/22 03:41:54;;;;;;;11.60;8.10;;;;;;;9.10;100.00;97646.78;5070967;28;20096;-92
2021/05/22 03:44:19;;;;;;;20.27;8.65;;;;;;;9.23;100.00;97658.47;5072326;28;20224;-93
2021/05/22 03:46:45;;;;;;;19.50;8.10;;;;;;;9.27;100.00;97667.19;5077461;28;20054;-93
2021/05/22 03:49:11;;;;;;;11.88;8.02;;;;;;;9.45;100.00;97673.31;5077767;28;20028;-94
2021/05/22 03:51:37;;;;;;;10.02;7.38;;;;;;;9.47;100.00;97688.31;5060540;28;20119;-93
2021/05/22 03:54:03;;;;;;;11.95;6.40;;;;;;;9.39;100.00;97660.28;5076662;28;20024;-94
2021/05/22 03:56:29;;;;;;;12.75;6.63;;;;;;;9.34;100.00;97681.06;5078264;28;20055;-93
2021/05/22 03:58:54;;;;;;;11.75;6.20;;;;;;;9.39;100.00;97689.66;5073235;28;20039;-93
2021/05/22 04:01:20;;;;;;;8.75;5.90;;;;;;;9.12;100.00;97655.53;5071915;28;20036;-94
2021/05/22 04:03:46;;;;;;;9.05;6.63;;;;;;;9.27;100.00;97678.72;5070355;28;20018;-93
2021/05/22 04:06:11;;;;;;;10.23;6.15;;;;;;;9.16;100.00;97656.25;5070819;28;20542;-93
2021/05/22 04:08:37;;;;;;;16.80;6.80;;;;;;;8.99;100.00;97622.47;5069088;28;20047;-94
2021/05/22 04:11:03;;;;;;;20.50;13.70;;;;;;;9.12;100.00;97644.88;5072170;28;20410;-94
2021/05/22 04:13:30;;;;;;;10.82;6.70;;;;;;;9.38;100.00;97663.94;5071889;28;20035;-93
2021/05/22 04:15:55;;;;;;;15.85;7.85;;;;;;;9.38;100.00;97634.56;5075260;28;20024;-92
2021/05/22 04:18:21;;;;;;;25.20;9.82;;;;;;;9.65;100.00;97670.41;5073519;28;20548;-92
2021/05/22 04:20:47;;;;;;;19.10;9.02;;;;;;;9.71;100.00;97662.91;5073922;28;20012;-93
2021/05/22 04:23:13;;;;;;;16.85;8.95;;;;;;;10.02;100.00;97688.72;5074233;28;20051;-92
2021/05/22 04:25:39;;;;;;;11.77;6.63;;;;;;;9.97;100.00;97645.38;5074443;28;20498;-92
2021/05/22 04:28:07;;;;;;;10.15;6.00;;;;;;;10.11;100.00;97664.16;5075228;28;20020;-92
2021/05/22 04:30:33;;;;;;;10.45;6.60;;;;;;;10.10;100.00;97646.38;5090577;28;20130;-92
2021/05/22 04:32:59;;;;;;;13.40;6.78;;;;;;;10.61;100.00;97687.91;5074045;28;20031;-92
2021/05/22 04:35:25;;;;;;;12.57;7.53;;;;;;;10.84;100.00;97675.84;5070929;28;20039;-93
2021/05/22 04:37:50;;;;;;;11.85;7.13;;;;;;;10.49;100.00;97631.66;5073984;28;20043;-91
2021/05/22 04:40:16;;;;;;;8.15;6.43;;;;;;;10.61;100.00;97657.66;5069096;28;20043;-92
2021/05/22 04:42:42;;;;;;;11.30;5.93;;;;;;;10.89;100.00;97679.06;5062451;28;20052;-90
2021/05/22 04:45:08;;;;;;;12.00;6.88;;;;;;;10.96;100.00;97682.25;5065945;28;20031;-93
2021/05/22 04:47:35;;;;;;;9.23;7.20;;;;;;;11.24;100.00;97680.44;5068046;28;20042;-93
2021/05/22 04:50:02;;;;;;;9.40;6.68;;;;;;;11.34;100.00;97673.56;5068400;28;20055;-92
2021/05/22 04:52:28;;;;;;;16.52;7.05;;;;;;;11.81;100.00;97680.44;5067395;28;20088;-93
2021/05/22 04:54:53;;;;;;;14.73;7.40;;;;;;;12.56;99.51;97674.47;5066085;28;20088;-91
2021/05/22 04:57:19;;;;;;;11.18;6.70;;;;;;;13.69;94.04;97679.00;5065918;28;20060;-91
2021/05/22 04:59:45;;;;;;;14.90;7.03;;;;;;;14.77;85.56;97687.09;5068456;28;20046;-92
2021/05/22 05:02:10;;;;;;;10.25;6.35;;;;;;;15.32;81.38;97673.72;5068163;28;20040;-92
2021/05/22 05:04:36;;;;;;;13.93;6.07;;;;;;;15.57;80.16;97675.38;5065180;28;20032;-93
2021/05/22 05:07:05;;;;;;;13.93;6.47;;;;;;;15.82;77.60;97696.69;5061435;28;20036;-91
2021/05/22 05:09:35;;;;;;;11.73;6.60;;;;;;;15.69;78.22;97686.03;5065624;28;20089;-94
2021/05/22 05:12:05;;;;;;;18.20;6.60;;;;;;;15.47;77.76;97659.06;5066571;28;20032;-93
2021/05/22 05:14:31;;;;;;;15.52;7.43;;;;;;;15.93;77.14;97704.81;5084199;28;20491;-91
2021/05/22 05:16:56;;;;;;;31.63;15.70;;;;;;;16.32;75.62;97713.31;5061848;28;20031;-87
2021/05/22 05:19:28;;;;;;;26.63;14.10;;;;;;;16.66;72.94;97710.44;5080467;28;20431;-93
2021/05/22 05:21:54;;;;;;;48.65;26.73;;;;;;;16.56;72.48;97719.41;5064913;28;20020;-89
2021/05/22 05:24:20;;;;;;;15.75;6.70;;;;;;;16.87;73.25;97721.25;5066454;28;20028;-91
2021/05/22 05:26:46;;;;;;;9.73;7.20;;;;;;;17.79;69.11;97728.59;5067332;28;20027;-93
2021/05/22 05:29:11;;;;;;;15.82;7.65;;;;;;;18.08;66.67;97717.91;5062624;28;20035;-87
2021/05/22 05:31:37;;;;;;;18.98;7.85;;;;;;;18.43;65.96;97718.25;5063767;28;20075;-88
2021/05/22 05:34:03;;;;;;;24.60;15.00;;;;;;;18.51;65.25;97732.03;5079376;28;20011;-87
2021/05/22 05:36:29;;;;;;;18.85;7.75;;;;;;;18.56;63.93;97724.31;5065865;28;20493;-91
2021/05/22 05:38:54;;;;;;;10.70;6.32;;;;;;;18.50;64.24;97719.47;5065606;28;20033;-91
2021/05/22 05:41:20;;;;;;;101.40;65.00;;;;;;;18.66;63.68;97752.28;5068652;28;20012;-92
2021/05/22 05:43:46;;;;;;;11.48;6.60;;;;;;;18.60;64.36;97749.28;5062399;28;20035;-86
2021/05/22 05:46:12;;;;;;;53.55;34.40;;;;;;;18.05;65.19;97765.06;5058042;28;20035;-80
2021/05/22 05:48:37;;;;;;;11.25;5.80;;;;;;;17.74;66.70;97756.06;5061571;28;20092;-89
2021/05/22 05:51:08;;;;;;;7.45;5.20;;;;;;;18.87;62.98;97723.22;5068143;28;20115;-93
2021/05/22 05:53:35;;;;;;;8.20;5.60;;;;;;;19.65;59.89;97727.59;5068443;28;20024;-93
2021/05/22 05:59:21;;;;;;;20.98;11.48;;;;;;;22.86;50.23;97761.69;5102042;28;20040;-94
2021/05/22 06:05:19;;;;;;;14.57;8.60;;;;;;;23.18;46.87;97754.47;5101886;28;20501;-92
2021/05/22 06:07:47;;;;;;;10.63;5.20;;;;;;;22.62;48.47;97770.63;5066394;28;20032;-92
2021/05/22 06:10:13;;;;;;;19.45;11.70;;;;;;;23.17;48.03;97776.44;5066134;28;20085;-93
2021/05/22 06:12:41;;;;;;;11.75;7.55;;;;;;;23.55;46.74;97764.94;5066778;28;20012;-95
2021/05/22 06:15:22;;;;;;;7.10;5.40;;;;;;;23.77;44.34;97785.25;5063690;28;20027;-89
2021/05/22 06:17:50;;;;;;;13.77;7.50;;;;;;;24.27;44.84;97779.56;5043883;28;20060;-93
2021/05/22 06:20:15;;;;;;;24.02;18.63;;;;;;;24.52;44.16;97783.06;5065791;28;20028;-94
2021/05/22 06:22:41;;;;;;;13.82;7.40;;;;;;;24.19;45.43;97787.78;5069403;28;20031;-94
2021/05/22 06:25:08;;;;;;;11.45;7.10;;;;;;;24.35;44.67;97785.00;5068640;28;20032;-94
2021/05/22 06:27:33;;;;;;;12.00;5.80;;;;;;;26.21;40.62;97792.94;5071183;28;20035;-93
2021/05/22 06:29:59;;;;;;;10.00;6.18;;;;;;;25.43;41.67;97786.03;5070305;28;20027;-89
2021/05/22 06:32:24;;;;;;;15.88;7.47;;;;;;;26.22;40.96;97777.34;5070648;28;20024;-92
2021/05/22 06:34:50;;;;;;;12.27;6.32;;;;;;;27.53;38.21;97786.53;5067100;28;20020;-92
2021/05/22 06:37:16;;;;;;;19.02;7.50;;;;;;;28.59;36.12;97787.22;5067859;28;20030;-90
2021/05/22 06:39:42;;;;;;;9.98;5.43;;;;;;;28.77;35.77;97770.19;5085387;28;20461;-93
2021/05/22 06:42:07;;;;;;;10.75;5.07;;;;;;;28.94;34.70;97785.34;5070622;28;20024;-91
2021/05/22 06:44:44;;;;;;;7.45;4.90;;;;;;;27.61;36.99;97790.00;5084421;28;20027;-92
2021/05/22 06:47:10;;;;;;;11.38;5.10;;;;;;;26.93;37.94;97782.19;5071712;28;20024;-92
2021/05/22 06:49:36;;;;;;;10.73;4.90;;;;;;;25.73;40.24;97758.59;5052239;28;20058;-83
2021/05/22 06:52:02;;;;;;;14.57;4.97;;;;;;;26.64;39.37;97783.03;5059701;28;20089;-83
2021/05/22 06:54:31;;;;;;;13.38;4.88;;;;;;;26.67;39.14;97776.34;5059189;28;20056;-79
2021/05/22 06:56:56;;;;;;;7.80;5.03;;;;;;;25.80;40.84;97778.75;5059834;28;20027;-79
2021/05/22 06:59:22;;;;;;;17.08;5.90;;;;;;;26.03;41.54;97780.56;5059962;28;20085;-80
2021/05/22 07:01:48;;;;;;;21.58;6.65;;;;;;;25.43;42.43;97780.56;5076106;28;20464;-80
2021/05/22 07:04:13;;;;;;;38.22;5.07;;;;;;;25.39;41.46;97773.72;5094277;28;20532;-78
2021/05/22 07:06:39;;;;;;;17.52;5.13;;;;;;;25.13;43.02;97774.09;5074669;28;20067;-80
2021/05/22 07:09:05;;;;;;;14.00;5.72;;;;;;;24.71;43.10;97763.47;5059371;28;20085;-80
2021/05/22 07:11:30;;;;;;;20.92;5.35;;;;;;;24.19;44.50;97774.97;5059367;28;20495;-78
2021/05/22 07:13:56;;;;;;;28.88;9.73;;;;;;;24.12;45.59;97784.00;5059148;28;20175;-78
2021/05/22 07:16:22;;;;;;;40.88;8.13;;;;;;;24.17;45.42;97766.09;5076055;28;20043;-79
2021/05/22 07:18:47;;;;;;;21.75;8.52;;;;;;;24.35;46.67;97767.72;5108808;28;20089;-79
2021/05/22 07:21:14;;;;;;;35.00;15.18;;;;;;;24.78;45.31;97791.84;5058449;28;20032;-78
2021/05/22 07:23:40;;;;;;;22.83;7.07;;;;;;;24.87;44.87;97800.91;5080882;28;20027;-79
2021/05/22 07:26:05;;;;;;;11.05;4.93;;;;;;;25.82;42.83;97808.72;5058741;28;20481;-79
2021/05/22 07:28:32;;;;;;;18.45;5.75;;;;;;;26.23;41.74;97795.50;5092555;28;20031;-78
2021/05/22 07:31:00;;;;;;;14.40;6.20;;;;;;;27.56;40.62;97800.72;5058828;28;20024;-79
2021/05/22 07:33:27;;;;;;;8.88;5.30;;;;;;;28.84;37.42;97791.22;5055457;28;20097;-79
2021/05/22 07:35:53;;;;;;;29.52;5.45;;;;;;;30.25;34.51;97793.94;5059477;28;20432;-81
2021/05/22 07:38:20;;;;;;;11.27;4.05;;;;;;;31.30;30.53;97782.69;5058418;28;20485;-79
2021/05/22 07:40:45;;;;;;;11.82;2.78;;;;;;;30.56;31.76;97761.03;5075253;28;20059;-80
2021/05/22 07:43:11;;;;;;;6.03;3.65;;;;;;;31.78;29.72;97760.09;5075561;28;20066;-79
2021/05/22 07:45:37;;;;;;;8.65;2.65;;;;;;;32.01;31.96;97760.34;5090150;28;20379;-76
2021/05/22 07:48:03;;;;;;;13.48;3.58;;;;;;;32.57;29.57;97744.53;5107039;28;20137;-77
2021/05/22 07:50:30;;;;;;;9.60;2.80;;;;;;;32.34;28.07;97733.22;5075183;28;20111;-76
2021/05/22 07:52:56;;;;;;;3.20;2.50;;;;;;;31.26;28.07;97728.88;5075164;28;20024;-76
2021/05/22 07:55:21;;;;;;;6.25;2.40;;;;;;;29.95;27.76;97724.53;5108648;28;20478;-77
2021/05/22 07:57:47;;;;;;;6.03;2.83;;;;;;;28.48;30.33;97718.97;5074809;28;20082;-76
2021/05/22 08:00:13;;;;;;;5.38;3.25;;;;;;;27.65;32.01;97732.72;5075188;28;20081;-77
2021/05/22 08:02:39;;;;;;;8.45;5.50;;;;;;;27.55;31.79;97729.44;5108828;28;20149;-76
2021/05/22 08:05:06;;;;;;;3.75;2.33;;;;;;;27.18;31.94;97736.88;5075065;28;20514;-76
2021/05/22 08:07:31;;;;;;;5.28;2.80;;;;;;;26.71;32.22;97740.06;5054719;28;20036;-77
2021/05/22 08:09:57;;;;;;;2.85;2.58;;;;;;;26.00;32.38;97739.81;5057040;28;20070;-77
2021/05/22 08:12:22;;;;;;;7.15;4.68;;;;;;;25.43;35.19;97753.16;5092031;28;20024;-78
2021/05/22 08:14:50;;;;;;;7.32;3.10;;;;;;;24.79;34.93;97747.03;5057732;28;20032;-77
2021/05/22 08:17:16;;;;;;;2.38;2.17;;;;;;;24.60;34.65;97742.84;5075138;28;20035;-76
2021/05/22 08:19:42;;;;;;;3.80;2.30;;;;;;;23.89;35.31;97728.34;5091098;28;20085;-77
2021/05/22 08:22:07;;;;;;;10.27;6.63;;;;;;;23.64;36.72;97733.00;5074220;28;20111;-76
2021/05/22 08:24:33;;;;;;;3.20;2.40;;;;;;;23.74;35.63;97729.06;5074638;28;20059;-77
2021/05/22 08:26:59;;;;;;;9.80;4.50;;;;;;;24.10;36.12;97714.97;5056937;28;20380;-77
2021/05/22 08:29:24;;;;;;;4.25;2.03;;;;;;;24.12;35.13;97726.59;5091332;28;20044;-77
2021/05/22 08:31:50;;;;;;;6.15;2.10;;;;;;;23.57;36.14;97726.50;5074289;28;20081;-77
2021/05/22 08:34:15;;;;;;;6.18;2.40;;;;;;;23.75;35.33;97719.81;5074603;28;20112;-77
2021/05/22 08:36:41;;;;;;;3.60;2.20;;;;;;;23.75;35.91;97722.56;5057581;28;20032;-77
2021/05/22 08:39:06;;;;;;;3.15;2.08;;;;;;;23.55;35.42;97728.56;5057625;28;20077;-77
2021/05/22 08:41:33;;;;;;;5.53;2.17;;;;;;;23.58;35.52;97730.94;5073870;28;20051;-77
2021/05/22 08:44:01;;;;;;;2.53;2.15;;;;;;;23.51;35.98;97729.91;5090903;28;20039;-77
2021/05/22 08:46:30;;;;;;;3.05;2.10;;;;;;;23.42;36.75;97741.88;5092309;28;20082;-76
2021/05/22 08:48:55;;;;;;;4.85;2.42;;;;;;;23.60;35.97;97746.13;5056420;28;20024;-77
2021/05/22 08:51:21;;;;;;;2.30;2.10;;;;;;;23.67;35.79;97732.66;5073900;28;20477;-76
2021/05/22 08:53:47;;;;;;;3.50;1.90;;;;;;;24.44;35.05;97731.13;5057179;28;20030;-77
2021/05/22 08:56:14;;;;;;;2.88;2.40;;;;;;;24.90;35.21;97732.97;5056801;28;20083;-77
2021/05/22 08:58:55;;;;;;;6.63;2.33;;;;;;;25.00;34.75;97714.44;5073925;28;20028;-77
2021/05/22 09:01:21;;;;;;;2.83;2.00;;;;;;;25.54;33.26;97715.25;5083974;28;20032;-77
2021/05/22 09:03:46;;;;;;;7.45;2.25;;;;;;;25.79;33.56;97727.69;5073734;28;20024;-77
2021/05/22 09:06:12;;;;;;;4.25;3.20;;;;;;;26.37;33.39;97721.44;5073776;28;20020;-77
2021/05/22 09:08:38;;;;;;;2.20;1.63;;;;;;;26.03;30.57;97726.59;5074059;28;20047;-77
2021/05/22 09:11:05;;;;;;;11.10;2.13;;;;;;;26.00;32.22;97720.63;5056642;28;20418;-77
2021/05/22 09:13:32;;;;;;;2.17;1.98;;;;;;;25.98;30.26;97726.31;5073785;28;20054;-77
2021/05/22 09:16:03;;;;;;;5.53;1.75;;;;;;;25.64;30.25;97706.78;5056699;28;20089;-78
2021/05/22 09:18:35;;;;;;;5.30;1.63;;;;;;;25.95;30.07;97712.97;5073481;28;20028;-77
2021/05/22 09:21:03;;;;;;;2.53;1.50;;;;;;;25.97;29.38;97699.06;5073498;28;20177;-78
2021/05/22 09:23:35;;;;;;;2.20;1.83;;;;;;;26.86;29.93;97707.97;5056888;28;20133;-78
2021/05/22 09:26:04;;;;;;;2.28;1.85;;;;;;;27.33;29.47;97712.94;5090534;28;20206;-78
2021/05/22 09:28:31;;;;;;;13.38;2.55;;;;;;;27.95;28.68;97706.72;5056469;28;20457;-78
2021/05/22 09:30:58;;;;;;;4.82;1.70;;;;;;;28.47;26.86;97701.59;5072588;28;20024;-78
2021/05/22 09:33:32;;;;;;;1.70;1.58;;;;;;;27.96;26.54;97702.94;5127264;27;20027;-76
2021/05/22 09:36:07;;;;;;;1.90;1.45;;;;;;;27.29;28.31;97711.59;5092952;28;20033;-76
2021/05/22 09:38:34;;;;;;;2.15;1.88;;;;;;;28.24;27.70;97706.53;5110707;28;20032;-76
2021/05/22 09:41:12;;;;;;;2.10;1.90;;;;;;;30.33;25.83;97699.03;5109989;28;20027;-76
2021/05/22 09:43:37;;;;;;;2.10;1.70;;;;;;;31.47;23.63;97684.28;5127156;27;20027;-77
2021/05/22 09:46:08;;;;;;;2.40;1.50;;;;;;;32.23;21.38;97670.28;5110204;28;20448;-77
2021/05/22 09:48:34;;;;;;;2.08;1.60;;;;;;;33.53;21.78;97671.63;5110143;28;20030;-77
2021/05/22 09:51:02;;;;;;;6.38;1.60;;;;;;;34.18;21.52;97680.81;5109953;28;20057;-78
2021/05/22 09:53:37;;;;;;;14.68;6.05;;;;;;;35.87;20.86;97692.22;5110386;28;20390;-78
2021/05/22 09:56:11;;;;;;;2.67;2.00;;;;;;;36.46;19.35;97684.25;5109479;28;20506;-78
2021/05/22 09:58:39;;;;;;;4.20;2.50;;;;;;;37.47;18.63;97675.31;5110181;28;20039;-76
2021/05/22 10:01:05;;;;;;;3.22;2.00;;;;;;;37.87;19.08;97680.47;5104746;28;20020;-76
2021/05/22 10:03:30;;;;;;;6.15;2.58;;;;;;;37.87;21.10;97683.25;5076943;28;20442;-76
2021/05/22 10:05:56;;;;;;;4.85;2.50;;;;;;;37.68;18.20;97661.56;5077210;28;20403;-77
2021/05/22 10:08:21;;;;;;;4.57;2.00;;;;;;;37.25;19.06;97656.91;5093777;28;20055;-76
2021/05/22 10:10:51;;;;;;;5.43;3.58;;;;;;;38.09;19.30;97671.16;5076983;28;20106;-76
2021/05/22 10:13:19;;;;;;;7.80;2.10;;;;;;;37.77;18.40;97648.81;5076854;28;20036;-77
2021/05/22 10:15:47;;;;;;;17.27;15.43;;;;;;;37.70;17.23;97635.06;5060173;28;20020;-76
2021/05/22 10:18:13;;;;;;;5.05;3.33;;;;;;;37.85;17.33;97621.22;5059756;28;20367;-77
2021/05/22 10:20:38;;;;;;;1.90;1.60;;;;;;;35.98;18.10;97595.75;5076994;28;20023;-77
2021/05/22 10:23:06;;;;;;;3.33;1.85;;;;;;;37.05;17.93;97609.22;5059915;28;20028;-77
2021/05/22 10:25:32;;;;;;;2.97;2.63;;;;;;;37.68;18.67;97628.06;5094096;28;20031;-76
2021/05/22 10:27:58;;;;;;;5.07;3.67;;;;;;;37.30;18.87;97626.25;5076751;28;20028;-77
2021/05/22 10:30:24;;;;;;;9.05;3.22;;;;;;;36.52;19.91;97621.94;5076608;28;20107;-77
2021/05/22 10:33:01;;;;;;;8.00;3.42;;;;;;;36.78;20.48;97632.34;5077064;28;20038;-76
2021/05/22 10:35:27;;;;;;;4.38;1.80;;;;;;;37.19;18.02;97618.88;5059888;28;20475;-76
2021/05/22 10:37:54;;;;;;;1.67;1.58;;;;;;;35.51;19.16;97602.72;5076658;28;20122;-76
2021/05/22 10:40:44;;;;;;;3.03;2.65;;;;;;;36.23;20.90;97598.09;5059832;28;20423;-76
2021/05/22 10:43:09;;;;;;;7.97;1.80;;;;;;;36.34;16.23;97569.25;5059935;28;20067;-77
2021/05/22 10:45:37;;;;;;;5.38;1.40;;;;;;;35.58;15.93;97545.81;5076528;28;20055;-76
2021/05/22 10:48:09;;;;;;;2.53;1.92;;;;;;;35.72;17.14;97554.66;5076370;28;20059;-76
2021/05/22 10:50:42;;;;;;;2.88;1.42;;;;;;;36.20;18.29;97551.22;5076434;28;20062;-76
2021/05/22 10:53:22;;;;;;;5.13;1.75;;;;;;;37.83;17.78;97548.00;5093038;28;20069;-76
2021/05/22 10:56:13;;;;;;;6.95;2.90;;;;;;;38.08;16.40;97535.34;5094496;28;20411;-76
2021/05/22 10:58:39;;;;;;;;;;;;;;;38.35;16.60;97536.91;5076282;28;20487;-76
2021/05/22 11:01:30;;;;;;;3.97;1.95;;;;;;;39.88;16.14;97534.16;5051188;28;19922;-77
2021/05/22 11:04:06;;;;;;;6.00;1.70;;;;;;;39.23;13.36;97520.13;5049710;28;20039;-76
2021/05/22 11:06:42;;;;;;;5.68;1.73;;;;;;;39.21;15.94;97527.97;5075695;28;20032;-77
2021/05/22 11:09:26;;;;;;;2.10;1.70;;;;;;;39.72;15.28;97529.69;5075835;28;20079;-77
2021/05/22 11:12:25;;;;;;;3.13;2.17;;;;;;;39.46;15.45;97531.66;5074981;28;20030;-77
2021/05/22 11:15:32;;;;;;;5.05;1.70;;;;;;;38.63;15.55;97488.06;5048510;28;20035;-78
2021/05/22 11:17:58;;;;;;;2.80;1.20;;;;;;;38.42;15.64;97501.13;5093124;28;20044;-76
2021/05/22 11:20:24;;;;;;;6.90;3.83;;;;;;;39.13;16.13;97508.91;5075536;28;20028;-78
2021/05/22 11:22:58;;;;;;;3.90;2.13;;;;;;;39.77;15.59;97510.09;5093720;28;20028;-76
2021/05/22 11:25:24;;;;;;;3.15;2.80;;;;;;;39.89;15.52;97505.03;5075545;28;20032;-76
2021/05/22 11:30:19;;;;;;;4.93;3.13;;;;;;;39.92;17.51;97496.03;5093910;28;20028;-77
2021/05/22 11:32:58;;;;;;;6.45;2.42;;;;;;;40.79;15.00;97483.41;5075373;28;20110;-76
2021/05/22 11:35:27;;;;;;;1.80;1.55;;;;;;;39.81;14.50;97476.75;5076035;28;20100;-76
2021/05/22 11:38:21;;;;;;;3.67;3.03;;;;;;;40.07;15.89;97481.97;5075553;28;20024;-76